sensor_id;sensor_type;location;lat;lon;timestamp;P1;durP1;ratioP1;P2;durP2;ratioP2
24305;SDS011;12423;48.768;8.850;2023-03-30T00:00:07;5.32;;;2.05;;
24305;SDS011;12423;48.768;8.850;2023-03-30T00:02:18;6.40;;;1.48;;
24305;SDS011;12423;48.768;8.850;2023-03-30T00:04:22;8.70;;;2.10;;
24305;SDS011;12423;48.768;8.850;2023-03-30T00:06:26;6.57;;;1.73;;
24305;SDS011;12423;48.768;8.850;2023-03-30T00:08:27;8.93;;;2.78;;
24305;SDS011;12423;48.768;8.850;2023-03-30T00:10:28;8.75;;;2.03;;
24305;SDS011;12423;48.768;8.850;2023-03-30T00:12:29;7.28;;;2.00;;
24305;SDS011;12423;48.768;8.850;2023-03-30T00:14:30;6.70;;;1.30;;
24305;SDS011;12423;48.768;8.850;2023-03-30T00:16:31;9.23;;;2.03;;
24305;SDS011;12423;48.768;8.850;2023-03-30T00:18:32;12.32;;;2.05;;
24305;SDS011;12423;48.768;8.850;2023-03-30T00:20:34;10.75;;;1.88;;
24305;SDS011;12423;48.768;8.850;2023-03-30T00:22:37;9.90;;;1.60;;
24305;SDS011;12423;48.768;8.850;2023-03-30T00:24:39;14.35;;;2.20;;
24305;SDS011;12423;48.768;8.850;2023-03-30T00:26:40;8.77;;;1.63;;
24305;SDS011;12423;48.768;8.850;2023-03-30T00:28:41;11.48;;;2.05;;
24305;SDS011;12423;48.768;8.850;2023-03-30T00:30:42;7.18;;;2.08;;
24305;SDS011;12423;48.768;8.850;2023-03-30T00:32:43;8.98;;;1.80;;
24305;SDS011;12423;48.768;8.850;2023-03-30T00:34:45;10.82;;;2.92;;
24305;SDS011;12423;48.768;8.850;2023-03-30T00:36:46;12.52;;;2.40;;
24305;SDS011;12423;48.768;8.850;2023-03-30T00:38:48;9.68;;;1.95;;
24305;SDS011;12423;48.768;8.850;2023-03-30T00:40:57;8.23;;;2.40;;
24305;SDS011;12423;48.768;8.850;2023-03-30T00:43:05;8.60;;;1.52;;
24305;SDS011;12423;48.768;8.850;2023-03-30T00:47:27;7.25;;;1.70;;
24305;SDS011;12423;48.768;8.850;2023-03-30T00:49:29;6.18;;;1.70;;
24305;SDS011;12423;48.768;8.850;2023-03-30T00:51:32;10.95;;;1.75;;
24305;SDS011;12423;48.768;8.850;2023-03-30T00:55:41;10.80;;;2.00;;
24305;SDS011;12423;48.768;8.850;2023-03-30T00:57:45;7.22;;;2.40;;
24305;SDS011;12423;48.768;8.850;2023-03-30T00:59:48;7.93;;;1.85;;
24305;SDS011;12423;48.768;8.850;2023-03-30T01:01:51;13.27;;;1.90;;
24305;SDS011;12423;48.768;8.850;2023-03-30T01:03:53;7.10;;;1.33;;
24305;SDS011;12423;48.768;8.850;2023-03-30T01:05:56;9.77;;;1.90;;
24305;SDS011;12423;48.768;8.850;2023-03-30T01:08:00;14.30;;;2.65;;
24305;SDS011;12423;48.768;8.850;2023-03-30T01:10:07;5.90;;;1.65;;
24305;SDS011;12423;48.768;8.850;2023-03-30T01:12:09;12.15;;;1.98;;
24305;SDS011;12423;48.768;8.850;2023-03-30T01:14:11;8.82;;;2.10;;
24305;SDS011;12423;48.768;8.850;2023-03-30T01:16:30;6.97;;;1.77;;
24305;SDS011;12423;48.768;8.850;2023-03-30T01:25:50;9.40;;;1.73;;
24305;SDS011;12423;48.768;8.850;2023-03-30T01:28:05;7.95;;;1.85;;
24305;SDS011;12423;48.768;8.850;2023-03-30T01:37:31;12.10;;;2.00;;
24305;SDS011;12423;48.768;8.850;2023-03-30T01:42:23;15.82;;;2.90;;
24305;SDS011;12423;48.768;8.850;2023-03-30T01:44:31;9.77;;;2.60;;
24305;SDS011;12423;48.768;8.850;2023-03-30T01:46:44;7.78;;;1.40;;
24305;SDS011;12423;48.768;8.850;2023-03-30T01:49:18;11.10;;;2.20;;
24305;SDS011;12423;48.768;8.850;2023-03-30T01:51:29;9.55;;;2.50;;
24305;SDS011;12423;48.768;8.850;2023-03-30T01:53:39;6.65;;;1.90;;
24305;SDS011;12423;48.768;8.850;2023-03-30T01:58:07;13.70;;;2.00;;
24305;SDS011;12423;48.768;8.850;2023-03-30T02:00:18;7.10;;;1.38;;
24305;SDS011;12423;48.768;8.850;2023-03-30T02:02:23;12.07;;;1.90;;
24305;SDS011;12423;48.768;8.850;2023-03-30T02:04:29;9.13;;;1.77;;
24305;SDS011;12423;48.768;8.850;2023-03-30T02:06:35;7.32;;;1.65;;
24305;SDS011;12423;48.768;8.850;2023-03-30T02:08:42;7.57;;;1.70;;
24305;SDS011;12423;48.768;8.850;2023-03-30T02:10:46;10.20;;;1.83;;
24305;SDS011;12423;48.768;8.850;2023-03-30T02:12:48;5.10;;;1.70;;
24305;SDS011;12423;48.768;8.850;2023-03-30T02:14:51;7.15;;;1.80;;
24305;SDS011;12423;48.768;8.850;2023-03-30T02:16:58;6.32;;;1.90;;
24305;SDS011;12423;48.768;8.850;2023-03-30T02:19:02;15.40;;;2.30;;
24305;SDS011;12423;48.768;8.850;2023-03-30T02:21:06;11.77;;;2.20;;
24305;SDS011;12423;48.768;8.850;2023-03-30T02:23:09;14.27;;;1.63;;
24305;SDS011;12423;48.768;8.850;2023-03-30T02:25:11;9.50;;;2.00;;
24305;SDS011;12423;48.768;8.850;2023-03-30T02:27:12;7.75;;;2.20;;
24305;SDS011;12423;48.768;8.850;2023-03-30T02:29:14;11.30;;;2.10;;
24305;SDS011;12423;48.768;8.850;2023-03-30T02:31:16;7.68;;;1.73;;
24305;SDS011;12423;48.768;8.850;2023-03-30T02:33:25;13.68;;;1.98;;
24305;SDS011;12423;48.768;8.850;2023-03-30T02:47:25;10.38;;;1.80;;
24305;SDS011;12423;48.768;8.850;2023-03-30T02:49:59;12.30;;;1.85;;
24305;SDS011;12423;48.768;8.850;2023-03-30T02:52:12;0.77;;;0.77;;
24305;SDS011;12423;48.768;8.850;2023-03-30T02:59:40;0.08;;;0.08;;
24305;SDS011;12423;48.768;8.850;2023-03-30T03:01:54;0.73;;;0.73;;
24305;SDS011;12423;48.768;8.850;2023-03-30T03:04:00;0.00;;;0.00;;
24305;SDS011;12423;48.768;8.850;2023-03-30T03:06:10;12.45;;;3.20;;
24305;SDS011;12423;48.768;8.850;2023-03-30T03:08:22;0.10;;;0.10;;
24305;SDS011;12423;48.768;8.850;2023-03-30T03:10:24;0.10;;;0.10;;
24305;SDS011;12423;48.768;8.850;2023-03-30T03:12:25;0.00;;;0.00;;
24305;SDS011;12423;48.768;8.850;2023-03-30T03:14:28;0.30;;;0.30;;
24305;SDS011;12423;48.768;8.850;2023-03-30T03:16:29;0.03;;;0.03;;
24305;SDS011;12423;48.768;8.850;2023-03-30T03:18:42;0.00;;;0.00;;
24305;SDS011;12423;48.768;8.850;2023-03-30T03:20:45;3.50;;;1.77;;
24305;SDS011;12423;48.768;8.850;2023-03-30T03:22:47;0.25;;;0.25;;
24305;SDS011;12423;48.768;8.850;2023-03-30T03:24:48;0.13;;;0.13;;
24305;SDS011;12423;48.768;8.850;2023-03-30T03:26:49;0.00;;;0.00;;
24305;SDS011;12423;48.768;8.850;2023-03-30T03:28:50;2.45;;;2.30;;
24305;SDS011;12423;48.768;8.850;2023-03-30T03:30:51;2.05;;;1.85;;
24305;SDS011;12423;48.768;8.850;2023-03-30T03:32:55;0.00;;;0.00;;
24305;SDS011;12423;48.768;8.850;2023-03-30T03:34:58;0.45;;;0.45;;
24305;SDS011;12423;48.768;8.850;2023-03-30T03:37:00;0.10;;;0.10;;
24305;SDS011;12423;48.768;8.850;2023-03-30T03:39:03;2.13;;;2.00;;
24305;SDS011;12423;48.768;8.850;2023-03-30T03:41:05;0.00;;;0.00;;
24305;SDS011;12423;48.768;8.850;2023-03-30T03:43:07;2.75;;;1.38;;
24305;SDS011;12423;48.768;8.850;2023-03-30T03:45:08;8.32;;;6.03;;
24305;SDS011;12423;48.768;8.850;2023-03-30T03:47:11;0.00;;;0.00;;
24305;SDS011;12423;48.768;8.850;2023-03-30T03:49:13;0.80;;;0.80;;
24305;SDS011;12423;48.768;8.850;2023-03-30T03:51:14;0.00;;;0.00;;
24305;SDS011;12423;48.768;8.850;2023-03-30T03:53:15;0.77;;;0.65;;
24305;SDS011;12423;48.768;8.850;2023-03-30T03:55:16;0.28;;;0.28;;
24305;SDS011;12423;48.768;8.850;2023-03-30T03:57:17;0.00;;;0.00;;
24305;SDS011;12423;48.768;8.850;2023-03-30T03:59:18;0.00;;;0.00;;
24305;SDS011;12423;48.768;8.850;2023-03-30T04:01:21;0.20;;;0.20;;
24305;SDS011;12423;48.768;8.850;2023-03-30T04:03:22;0.50;;;0.50;;
24305;SDS011;12423;48.768;8.850;2023-03-30T04:05:23;0.00;;;0.00;;
24305;SDS011;12423;48.768;8.850;2023-03-30T04:07:25;0.00;;;0.00;;
24305;SDS011;12423;48.768;8.850;2023-03-30T04:09:26;0.00;;;0.00;;
24305;SDS011;12423;48.768;8.850;2023-03-30T04:12:02;0.32;;;0.32;;
24305;SDS011;12423;48.768;8.850;2023-03-30T04:16:35;0.32;;;0.32;;
24305;SDS011;12423;48.768;8.850;2023-03-30T04:19:05;0.00;;;0.00;;
24305;SDS011;12423;48.768;8.850;2023-03-30T04:21:26;0.00;;;0.00;;
24305;SDS011;12423;48.768;8.850;2023-03-30T04:23:48;0.35;;;0.35;;
24305;SDS011;12423;48.768;8.850;2023-03-30T04:25:52;0.00;;;0.00;;
24305;SDS011;12423;48.768;8.850;2023-03-30T04:28:19;0.00;;;0.00;;
24305;SDS011;12423;48.768;8.850;2023-03-30T04:30:37;0.00;;;0.00;;
24305;SDS011;12423;48.768;8.850;2023-03-30T04:33:01;2.10;;;1.77;;
24305;SDS011;12423;48.768;8.850;2023-03-30T04:35:28;0.30;;;0.30;;
24305;SDS011;12423;48.768;8.850;2023-03-30T04:37:48;3.53;;;2.78;;
24305;SDS011;12423;48.768;8.850;2023-03-30T04:40:10;0.00;;;0.00;;
24305;SDS011;12423;48.768;8.850;2023-03-30T04:42:31;0.55;;;0.52;;
24305;SDS011;12423;48.768;8.850;2023-03-30T04:44:50;0.00;;;0.00;;
24305;SDS011;12423;48.768;8.850;2023-03-30T04:47:27;0.00;;;0.00;;
24305;SDS011;12423;48.768;8.850;2023-03-30T04:50:06;0.20;;;0.20;;
24305;SDS011;12423;48.768;8.850;2023-03-30T04:52:27;0.00;;;0.00;;
24305;SDS011;12423;48.768;8.850;2023-03-30T04:54:51;2.42;;;2.25;;
24305;SDS011;12423;48.768;8.850;2023-03-30T04:57:27;2.10;;;1.95;;
24305;SDS011;12423;48.768;8.850;2023-03-30T04:59:40;0.00;;;0.00;;
24305;SDS011;12423;48.768;8.850;2023-03-30T05:02:05;2.35;;;1.20;;
24305;SDS011;12423;48.768;8.850;2023-03-30T05:04:20;0.00;;;0.00;;
24305;SDS011;12423;48.768;8.850;2023-03-30T05:06:51;6.32;;;1.48;;
24305;SDS011;12423;48.768;8.850;2023-03-30T05:09:05;0.10;;;0.10;;
24305;SDS011;12423;48.768;8.850;2023-03-30T05:11:29;0.22;;;0.22;;
24305;SDS011;12423;48.768;8.850;2023-03-30T05:13:52;0.55;;;0.55;;
24305;SDS011;12423;48.768;8.850;2023-03-30T05:15:59;1.02;;;0.98;;
24305;SDS011;12423;48.768;8.850;2023-03-30T05:18:06;0.00;;;0.00;;
24305;SDS011;12423;48.768;8.850;2023-03-30T05:20:26;0.00;;;0.00;;
24305;SDS011;12423;48.768;8.850;2023-03-30T05:22:44;4.38;;;0.55;;
24305;SDS011;12423;48.768;8.850;2023-03-30T05:25:06;1.15;;;1.15;;
24305;SDS011;12423;48.768;8.850;2023-03-30T05:27:27;5.25;;;2.30;;
24305;SDS011;12423;48.768;8.850;2023-03-30T05:29:50;0.00;;;0.00;;
24305;SDS011;12423;48.768;8.850;2023-03-30T05:32:15;0.25;;;0.25;;
24305;SDS011;12423;48.768;8.850;2023-03-30T05:34:35;1.10;;;0.82;;
24305;SDS011;12423;48.768;8.850;2023-03-30T05:36:53;0.00;;;0.00;;
24305;SDS011;12423;48.768;8.850;2023-03-30T05:39:14;0.08;;;0.08;;
24305;SDS011;12423;48.768;8.850;2023-03-30T05:41:33;0.00;;;0.00;;
24305;SDS011;12423;48.768;8.850;2023-03-30T05:43:55;0.10;;;0.10;;
24305;SDS011;12423;48.768;8.850;2023-03-30T05:46:07;0.00;;;0.00;;
24305;SDS011;12423;48.768;8.850;2023-03-30T05:48:24;0.10;;;0.10;;
24305;SDS011;12423;48.768;8.850;2023-03-30T05:53:03;0.10;;;0.10;;
24305;SDS011;12423;48.768;8.850;2023-03-30T05:55:18;3.10;;;2.08;;
24305;SDS011;12423;48.768;8.850;2023-03-30T05:57:21;1.75;;;1.65;;
24305;SDS011;12423;48.768;8.850;2023-03-30T05:59:36;0.57;;;0.30;;
24305;SDS011;12423;48.768;8.850;2023-03-30T06:02:08;0.00;;;0.00;;
24305;SDS011;12423;48.768;8.850;2023-03-30T06:04:10;0.20;;;0.20;;
24305;SDS011;12423;48.768;8.850;2023-03-30T06:06:12;1.65;;;1.55;;
24305;SDS011;12423;48.768;8.850;2023-03-30T06:08:14;0.00;;;0.00;;
24305;SDS011;12423;48.768;8.850;2023-03-30T06:10:17;0.00;;;0.00;;
24305;SDS011;12423;48.768;8.850;2023-03-30T06:12:20;0.00;;;0.00;;
24305;SDS011;12423;48.768;8.850;2023-03-30T06:14:21;4.38;;;2.58;;
24305;SDS011;12423;48.768;8.850;2023-03-30T06:16:58;0.03;;;0.03;;
24305;SDS011;12423;48.768;8.850;2023-03-30T06:18:59;0.20;;;0.20;;
24305;SDS011;12423;48.768;8.850;2023-03-30T06:21:01;1.65;;;1.55;;
24305;SDS011;12423;48.768;8.850;2023-03-30T06:23:07;0.35;;;0.35;;
24305;SDS011;12423;48.768;8.850;2023-03-30T06:25:08;0.00;;;0.00;;
24305;SDS011;12423;48.768;8.850;2023-03-30T06:27:09;0.10;;;0.10;;
24305;SDS011;12423;48.768;8.850;2023-03-30T06:29:10;0.22;;;0.22;;
24305;SDS011;12423;48.768;8.850;2023-03-30T06:31:14;0.20;;;0.20;;
24305;SDS011;12423;48.768;8.850;2023-03-30T06:33:16;0.63;;;0.63;;
24305;SDS011;12423;48.768;8.850;2023-03-30T06:35:29;3.45;;;1.75;;
24305;SDS011;12423;48.768;8.850;2023-03-30T06:37:31;0.17;;;0.17;;
24305;SDS011;12423;48.768;8.850;2023-03-30T06:39:34;11.77;;;3.15;;
24305;SDS011;12423;48.768;8.850;2023-03-30T06:41:38;0.52;;;0.52;;
24305;SDS011;12423;48.768;8.850;2023-03-30T06:43:46;0.45;;;0.45;;
24305;SDS011;12423;48.768;8.850;2023-03-30T06:45:50;0.70;;;0.70;;
24305;SDS011;12423;48.768;8.850;2023-03-30T06:47:55;0.00;;;0.00;;
24305;SDS011;12423;48.768;8.850;2023-03-30T06:49:57;0.00;;;0.00;;
24305;SDS011;12423;48.768;8.850;2023-03-30T06:52:01;0.55;;;0.55;;
24305;SDS011;12423;48.768;8.850;2023-03-30T06:54:02;6.03;;;1.85;;
24305;SDS011;12423;48.768;8.850;2023-03-30T06:56:03;0.10;;;0.10;;
24305;SDS011;12423;48.768;8.850;2023-03-30T06:58:07;0.15;;;0.15;;
24305;SDS011;12423;48.768;8.850;2023-03-30T07:00:09;0.10;;;0.10;;
24305;SDS011;12423;48.768;8.850;2023-03-30T07:02:14;0.20;;;0.20;;
24305;SDS011;12423;48.768;8.850;2023-03-30T07:04:34;0.00;;;0.00;;
24305;SDS011;12423;48.768;8.850;2023-03-30T07:06:46;0.10;;;0.10;;
24305;SDS011;12423;48.768;8.850;2023-03-30T07:08:48;6.65;;;2.65;;
24305;SDS011;12423;48.768;8.850;2023-03-30T07:10:54;0.00;;;0.00;;
24305;SDS011;12423;48.768;8.850;2023-03-30T07:12:58;0.00;;;0.00;;
24305;SDS011;12423;48.768;8.850;2023-03-30T07:14:59;0.03;;;0.03;;
24305;SDS011;12423;48.768;8.850;2023-03-30T07:17:00;0.10;;;0.10;;
24305;SDS011;12423;48.768;8.850;2023-03-30T07:19:01;0.10;;;0.10;;
24305;SDS011;12423;48.768;8.850;2023-03-30T07:21:02;0.10;;;0.10;;
24305;SDS011;12423;48.768;8.850;2023-03-30T07:23:12;0.00;;;0.00;;
24305;SDS011;12423;48.768;8.850;2023-03-30T07:25:14;0.10;;;0.10;;
24305;SDS011;12423;48.768;8.850;2023-03-30T07:27:15;0.00;;;0.00;;
24305;SDS011;12423;48.768;8.850;2023-03-30T07:29:17;0.35;;;0.35;;
24305;SDS011;12423;48.768;8.850;2023-03-30T07:31:22;0.00;;;0.00;;
24305;SDS011;12423;48.768;8.850;2023-03-30T07:33:24;0.00;;;0.00;;
24305;SDS011;12423;48.768;8.850;2023-03-30T07:35:29;0.10;;;0.10;;
24305;SDS011;12423;48.768;8.850;2023-03-30T07:37:33;0.00;;;0.00;;
24305;SDS011;12423;48.768;8.850;2023-03-30T07:39:34;0.10;;;0.10;;
24305;SDS011;12423;48.768;8.850;2023-03-30T07:41:38;0.00;;;0.00;;
24305;SDS011;12423;48.768;8.850;2023-03-30T07:43:39;0.00;;;0.00;;
24305;SDS011;12423;48.768;8.850;2023-03-30T07:45:42;0.10;;;0.10;;
24305;SDS011;12423;48.768;8.850;2023-03-30T07:47:47;0.38;;;0.38;;
24305;SDS011;12423;48.768;8.850;2023-03-30T07:49:49;0.10;;;0.10;;
24305;SDS011;12423;48.768;8.850;2023-03-30T07:51:52;0.13;;;0.13;;
24305;SDS011;12423;48.768;8.850;2023-03-30T07:53:57;0.10;;;0.10;;
24305;SDS011;12423;48.768;8.850;2023-03-30T07:56:08;0.10;;;0.10;;
24305;SDS011;12423;48.768;8.850;2023-03-30T07:58:17;0.05;;;0.05;;
24305;SDS011;12423;48.768;8.850;2023-03-30T08:00:18;0.32;;;0.32;;
24305;SDS011;12423;48.768;8.850;2023-03-30T08:02:50;0.00;;;0.00;;
24305;SDS011;12423;48.768;8.850;2023-03-30T08:04:52;0.65;;;0.65;;
24305;SDS011;12423;48.768;8.850;2023-03-30T08:07:01;0.00;;;0.00;;
24305;SDS011;12423;48.768;8.850;2023-03-30T08:09:04;0.63;;;0.63;;
24305;SDS011;12423;48.768;8.850;2023-03-30T08:11:05;0.00;;;0.00;;
24305;SDS011;12423;48.768;8.850;2023-03-30T08:13:08;0.10;;;0.10;;
24305;SDS011;12423;48.768;8.850;2023-03-30T08:15:09;0.10;;;0.10;;
24305;SDS011;12423;48.768;8.850;2023-03-30T08:17:10;0.00;;;0.00;;
24305;SDS011;12423;48.768;8.850;2023-03-30T08:19:12;0.55;;;0.55;;
24305;SDS011;12423;48.768;8.850;2023-03-30T08:21:13;10.75;;;1.98;;
24305;SDS011;12423;48.768;8.850;2023-03-30T08:23:14;0.00;;;0.00;;
24305;SDS011;12423;48.768;8.850;2023-03-30T08:25:15;0.00;;;0.00;;
24305;SDS011;12423;48.768;8.850;2023-03-30T08:27:16;0.00;;;0.00;;
24305;SDS011;12423;48.768;8.850;2023-03-30T08:29:17;0.10;;;0.10;;
24305;SDS011;12423;48.768;8.850;2023-03-30T08:31:18;0.00;;;0.00;;
24305;SDS011;12423;48.768;8.850;2023-03-30T08:33:20;0.00;;;0.00;;
24305;SDS011;12423;48.768;8.850;2023-03-30T08:35:23;0.35;;;0.35;;
24305;SDS011;12423;48.768;8.850;2023-03-30T08:37:25;0.00;;;0.00;;
24305;SDS011;12423;48.768;8.850;2023-03-30T08:39:25;0.45;;;0.30;;
24305;SDS011;12423;48.768;8.850;2023-03-30T08:45:44;0.05;;;0.05;;
24305;SDS011;12423;48.768;8.850;2023-03-30T08:47:46;0.00;;;0.00;;
24305;SDS011;12423;48.768;8.850;2023-03-30T08:50:33;0.22;;;0.20;;
24305;SDS011;12423;48.768;8.850;2023-03-30T08:52:19;2.10;;;0.57;;
24305;SDS011;12423;48.768;8.850;2023-03-30T08:54:23;0.47;;;0.47;;
24305;SDS011;12423;48.768;8.850;2023-03-30T08:56:40;0.10;;;0.10;;
24305;SDS011;12423;48.768;8.850;2023-03-30T09:01:30;0.10;;;0.10;;
24305;SDS011;12423;48.768;8.850;2023-03-30T09:03:36;0.00;;;0.00;;
24305;SDS011;12423;48.768;8.850;2023-03-30T09:06:12;0.10;;;0.10;;
24305;SDS011;12423;48.768;8.850;2023-03-30T09:08:23;0.05;;;0.05;;
24305;SDS011;12423;48.768;8.850;2023-03-30T09:10:29;0.00;;;0.00;;
24305;SDS011;12423;48.768;8.850;2023-03-30T09:12:43;0.00;;;0.00;;
24305;SDS011;12423;48.768;8.850;2023-03-30T09:14:51;0.00;;;0.00;;
24305;SDS011;12423;48.768;8.850;2023-03-30T09:17:06;0.08;;;0.08;;
24305;SDS011;12423;48.768;8.850;2023-03-30T09:19:15;0.00;;;0.00;;
24305;SDS011;12423;48.768;8.850;2023-03-30T09:21:27;1.65;;;1.35;;
24305;SDS011;12423;48.768;8.850;2023-03-30T09:23:31;0.00;;;0.00;;
24305;SDS011;12423;48.768;8.850;2023-03-30T09:25:35;0.38;;;0.38;;
24305;SDS011;12423;48.768;8.850;2023-03-30T09:27:44;0.00;;;0.00;;
24305;SDS011;12423;48.768;8.850;2023-03-30T09:29:47;0.00;;;0.00;;
24305;SDS011;12423;48.768;8.850;2023-03-30T09:31:54;0.10;;;0.10;;
24305;SDS011;12423;48.768;8.850;2023-03-30T09:38:48;0.10;;;0.10;;
24305;SDS011;12423;48.768;8.850;2023-03-30T09:43:24;0.00;;;0.00;;
24305;SDS011;12423;48.768;8.850;2023-03-30T09:45:33;0.00;;;0.00;;
24305;SDS011;12423;48.768;8.850;2023-03-30T09:47:35;0.00;;;0.00;;
24305;SDS011;12423;48.768;8.850;2023-03-30T09:49:37;0.00;;;0.00;;
24305;SDS011;12423;48.768;8.850;2023-03-30T09:51:51;0.13;;;0.13;;
24305;SDS011;12423;48.768;8.850;2023-03-30T09:53:57;0.00;;;0.00;;
24305;SDS011;12423;48.768;8.850;2023-03-30T09:56:06;0.20;;;0.20;;
24305;SDS011;12423;48.768;8.850;2023-03-30T09:58:11;0.03;;;0.03;;
24305;SDS011;12423;48.768;8.850;2023-03-30T10:02:25;0.13;;;0.13;;
24305;SDS011;12423;48.768;8.850;2023-03-30T10:04:28;0.10;;;0.10;;
24305;SDS011;12423;48.768;8.850;2023-03-30T10:06:29;0.20;;;0.20;;
24305;SDS011;12423;48.768;8.850;2023-03-30T10:08:42;0.00;;;0.00;;
24305;SDS011;12423;48.768;8.850;2023-03-30T10:10:53;0.00;;;0.00;;
24305;SDS011;12423;48.768;8.850;2023-03-30T10:13:16;0.05;;;0.05;;
24305;SDS011;12423;48.768;8.850;2023-03-30T10:15:19;0.00;;;0.00;;
24305;SDS011;12423;48.768;8.850;2023-03-30T10:17:23;0.10;;;0.10;;
24305;SDS011;12423;48.768;8.850;2023-03-30T10:19:26;0.10;;;0.10;;
24305;SDS011;12423;48.768;8.850;2023-03-30T10:21:35;0.00;;;0.00;;
24305;SDS011;12423;48.768;8.850;2023-03-30T10:23:40;0.00;;;0.00;;
24305;SDS011;12423;48.768;8.850;2023-03-30T10:25:45;0.00;;;0.00;;
24305;SDS011;12423;48.768;8.850;2023-03-30T10:27:50;0.10;;;0.10;;
24305;SDS011;12423;48.768;8.850;2023-03-30T10:29:53;0.00;;;0.00;;
24305;SDS011;12423;48.768;8.850;2023-03-30T10:32:36;1.38;;;1.27;;
24305;SDS011;12423;48.768;8.850;2023-03-30T10:34:22;1.17;;;1.08;;
24305;SDS011;12423;48.768;8.850;2023-03-30T10:36:34;0.03;;;0.03;;
24305;SDS011;12423;48.768;8.850;2023-03-30T10:38:40;0.00;;;0.00;;
24305;SDS011;12423;48.768;8.850;2023-03-30T10:40:42;0.10;;;0.10;;
24305;SDS011;12423;48.768;8.850;2023-03-30T10:42:45;0.10;;;0.10;;
24305;SDS011;12423;48.768;8.850;2023-03-30T10:44:50;0.00;;;0.00;;
24305;SDS011;12423;48.768;8.850;2023-03-30T10:49:36;0.00;;;0.00;;
24305;SDS011;12423;48.768;8.850;2023-03-30T10:51:51;0.00;;;0.00;;
24305;SDS011;12423;48.768;8.850;2023-03-30T10:58:44;0.57;;;0.57;;
24305;SDS011;12423;48.768;8.850;2023-03-30T11:07:34;0.10;;;0.10;;
24305;SDS011;12423;48.768;8.850;2023-03-30T11:09:41;0.43;;;0.43;;
24305;SDS011;12423;48.768;8.850;2023-03-30T11:11:50;0.28;;;0.25;;
24305;SDS011;12423;48.768;8.850;2023-03-30T11:13:59;0.00;;;0.00;;
24305;SDS011;12423;48.768;8.850;2023-03-30T11:16:04;0.00;;;0.00;;
24305;SDS011;12423;48.768;8.850;2023-03-30T11:18:12;0.00;;;0.00;;
24305;SDS011;12423;48.768;8.850;2023-03-30T11:20:24;0.10;;;0.10;;
24305;SDS011;12423;48.768;8.850;2023-03-30T11:22:33;17.85;;;2.42;;
24305;SDS011;12423;48.768;8.850;2023-03-30T11:24:39;0.00;;;0.00;;
24305;SDS011;12423;48.768;8.850;2023-03-30T11:33:58;0.00;;;0.00;;
24305;SDS011;12423;48.768;8.850;2023-03-30T11:38:40;0.00;;;0.00;;
24305;SDS011;12423;48.768;8.850;2023-03-30T11:40:46;1.13;;;0.68;;
24305;SDS011;12423;48.768;8.850;2023-03-30T11:42:51;0.00;;;0.00;;
24305;SDS011;12423;48.768;8.850;2023-03-30T11:44:53;0.60;;;0.60;;
24305;SDS011;12423;48.768;8.850;2023-03-30T11:46:59;0.30;;;0.30;;
24305;SDS011;12423;48.768;8.850;2023-03-30T11:49:05;0.00;;;0.00;;
24305;SDS011;12423;48.768;8.850;2023-03-30T11:51:17;0.00;;;0.00;;
24305;SDS011;12423;48.768;8.850;2023-03-30T11:53:43;0.00;;;0.00;;
24305;SDS011;12423;48.768;8.850;2023-03-30T11:56:03;0.52;;;0.52;;
24305;SDS011;12423;48.768;8.850;2023-03-30T12:00:54;0.10;;;0.10;;
24305;SDS011;12423;48.768;8.850;2023-03-30T12:03:19;0.00;;;0.00;;
24305;SDS011;12423;48.768;8.850;2023-03-30T12:05:39;1.10;;;1.00;;
24305;SDS011;12423;48.768;8.850;2023-03-30T12:08:09;0.25;;;0.25;;
24305;SDS011;12423;48.768;8.850;2023-03-30T12:10:25;0.00;;;0.00;;
24305;SDS011;12423;48.768;8.850;2023-03-30T12:12:34;0.00;;;0.00;;
24305;SDS011;12423;48.768;8.850;2023-03-30T12:14:59;0.30;;;0.30;;
24305;SDS011;12423;48.768;8.850;2023-03-30T12:17:05;0.00;;;0.00;;
24305;SDS011;12423;48.768;8.850;2023-03-30T12:21:32;0.10;;;0.10;;
24305;SDS011;12423;48.768;8.850;2023-03-30T12:23:59;0.00;;;0.00;;
24305;SDS011;12423;48.768;8.850;2023-03-30T12:26:17;0.00;;;0.00;;
24305;SDS011;12423;48.768;8.850;2023-03-30T12:28:28;0.00;;;0.00;;
24305;SDS011;12423;48.768;8.850;2023-03-30T12:30:54;0.03;;;0.03;;
24305;SDS011;12423;48.768;8.850;2023-03-30T12:33:10;0.00;;;0.00;;
24305;SDS011;12423;48.768;8.850;2023-03-30T12:35:45;0.00;;;0.00;;
24305;SDS011;12423;48.768;8.850;2023-03-30T12:37:51;0.08;;;0.08;;
24305;SDS011;12423;48.768;8.850;2023-03-30T12:39:58;0.00;;;0.00;;
24305;SDS011;12423;48.768;8.850;2023-03-30T12:49:04;0.15;;;0.15;;
24305;SDS011;12423;48.768;8.850;2023-03-30T12:51:20;0.00;;;0.00;;
24305;SDS011;12423;48.768;8.850;2023-03-30T12:56:10;0.05;;;0.05;;
24305;SDS011;12423;48.768;8.850;2023-03-30T13:00:24;0.00;;;0.00;;
24305;SDS011;12423;48.768;8.850;2023-03-30T13:02:37;3.30;;;2.05;;
24305;SDS011;12423;48.768;8.850;2023-03-30T13:04:54;0.10;;;0.10;;
24305;SDS011;12423;48.768;8.850;2023-03-30T13:06:58;3.63;;;1.75;;
24305;SDS011;12423;48.768;8.850;2023-03-30T13:11:14;3.88;;;1.17;;
24305;SDS011;12423;48.768;8.850;2023-03-30T13:13:22;3.83;;;1.13;;
24305;SDS011;12423;48.768;8.850;2023-03-30T13:15:50;5.18;;;1.38;;
24305;SDS011;12423;48.768;8.850;2023-03-30T13:17:58;3.70;;;1.45;;
24305;SDS011;12423;48.768;8.850;2023-03-30T13:20:13;7.05;;;1.45;;
24305;SDS011;12423;48.768;8.850;2023-03-30T13:22:23;3.45;;;1.20;;
24305;SDS011;12423;48.768;8.850;2023-03-30T13:26:40;3.85;;;1.30;;
24305;SDS011;12423;48.768;8.850;2023-03-30T13:30:45;3.67;;;1.20;;
24305;SDS011;12423;48.768;8.850;2023-03-30T13:35:31;4.53;;;1.48;;
24305;SDS011;12423;48.768;8.850;2023-03-30T13:40:13;3.72;;;1.63;;
24305;SDS011;12423;48.768;8.850;2023-03-30T13:42:22;5.90;;;1.90;;
24305;SDS011;12423;48.768;8.850;2023-03-30T13:44:42;2.88;;;1.45;;
24305;SDS011;12423;48.768;8.850;2023-03-30T13:51:29;2.88;;;1.20;;
24305;SDS011;12423;48.768;8.850;2023-03-30T13:53:35;2.03;;;1.02;;
24305;SDS011;12423;48.768;8.850;2023-03-30T13:55:41;2.88;;;1.02;;
24305;SDS011;12423;48.768;8.850;2023-03-30T13:57:47;6.00;;;1.60;;
24305;SDS011;12423;48.768;8.850;2023-03-30T13:59:50;2.95;;;0.90;;
24305;SDS011;12423;48.768;8.850;2023-03-30T14:01:56;7.03;;;1.85;;
24305;SDS011;12423;48.768;8.850;2023-03-30T14:03:59;2.65;;;1.20;;
24305;SDS011;12423;48.768;8.850;2023-03-30T14:08:13;6.15;;;1.63;;
24305;SDS011;12423;48.768;8.850;2023-03-30T14:10:17;5.63;;;2.30;;
24305;SDS011;12423;48.768;8.850;2023-03-30T14:12:20;3.10;;;1.20;;
24305;SDS011;12423;48.768;8.850;2023-03-30T14:14:25;6.50;;;1.55;;
24305;SDS011;12423;48.768;8.850;2023-03-30T14:16:34;5.60;;;1.60;;
24305;SDS011;12423;48.768;8.850;2023-03-30T14:18:36;3.45;;;1.23;;
24305;SDS011;12423;48.768;8.850;2023-03-30T14:22:58;3.90;;;1.30;;
24305;SDS011;12423;48.768;8.850;2023-03-30T14:25:00;3.58;;;1.45;;
24305;SDS011;12423;48.768;8.850;2023-03-30T14:27:05;8.13;;;1.50;;
24305;SDS011;12423;48.768;8.850;2023-03-30T14:29:16;4.45;;;1.23;;
24305;SDS011;12423;48.768;8.850;2023-03-30T14:31:20;4.85;;;1.42;;
24305;SDS011;12423;48.768;8.850;2023-03-30T14:33:22;4.93;;;1.30;;
24305;SDS011;12423;48.768;8.850;2023-03-30T14:35:23;4.63;;;1.40;;
24305;SDS011;12423;48.768;8.850;2023-03-30T14:37:25;6.75;;;1.23;;
24305;SDS011;12423;48.768;8.850;2023-03-30T14:42:29;2.70;;;0.88;;
24305;SDS011;12423;48.768;8.850;2023-03-30T14:44:35;3.50;;;1.17;;
24305;SDS011;12423;48.768;8.850;2023-03-30T14:48:46;5.28;;;0.90;;
24305;SDS011;12423;48.768;8.850;2023-03-30T14:50:48;3.05;;;1.00;;
24305;SDS011;12423;48.768;8.850;2023-03-30T14:52:49;4.53;;;1.15;;
24305;SDS011;12423;48.768;8.850;2023-03-30T14:54:52;6.40;;;1.45;;
24305;SDS011;12423;48.768;8.850;2023-03-30T14:56:55;5.97;;;1.40;;
24305;SDS011;12423;48.768;8.850;2023-03-30T14:58:58;2.63;;;0.70;;